Rising Sun, Montana
Current Conditions -  °F | °C
As of 6:55 PM on Friday 28 Nov 2014 (Local Time) from KGPI Reporting Station
Light Rain Light Rain  
Wind Chill: 38°   Ceiling: 3700
Heat Index: 44°   Visibility: 10mi
Dew Point: 38°   Wind: 13mph
Humidity: 79%   Direction: 170°S
Pressure: 29.26"   Gusts: NA
Location:  48.7064°N, 113.591°W
Report Text: KGPI 290155Z 17011KT 10SM -RA OVC037 07/03 A2926 RMK AO2 RAE0056B15 SLP914 P0001 T00670033
Loading
Personal Weather Stations






























Interactive Weather Map New forecast layout! Learn more

10-Day Weather Forecast

Advertisements
Track Severe Weather on mobile